sensor_id;sensor_type;location;lat;lon;timestamp;P1;durP1;ratioP1;P2;durP2;ratioP2
17997;SDS011;9124;48.144;17.098;2022-08-21T00:02:48;2.05;;;1.98;;
17997;SDS011;9124;48.144;17.098;2022-08-21T00:06:31;2.05;;;1.95;;
17997;SDS011;9124;48.144;17.098;2022-08-21T00:10:10;2.22;;;2.10;;
17997;SDS011;9124;48.144;17.098;2022-08-21T00:13:48;2.42;;;1.98;;
17997;SDS011;9124;48.144;17.098;2022-08-21T00:17:25;2.50;;;2.40;;
17997;SDS011;9124;48.144;17.098;2022-08-21T00:21:02;2.90;;;2.10;;
17997;SDS011;9124;48.144;17.098;2022-08-21T00:24:39;2.42;;;2.22;;
17997;SDS011;9124;48.144;17.098;2022-08-21T00:28:17;1.88;;;1.85;;
17997;SDS011;9124;48.144;17.098;2022-08-21T00:31:54;1.88;;;1.80;;
17997;SDS011;9124;48.144;17.098;2022-08-21T00:35:33;1.85;;;1.75;;
17997;SDS011;9124;48.144;17.098;2022-08-21T00:39:12;2.15;;;2.05;;
17997;SDS011;9124;48.144;17.098;2022-08-21T00:42:48;3.05;;;2.35;;
17997;SDS011;9124;48.144;17.098;2022-08-21T00:46:26;2.05;;;1.95;;
17997;SDS011;9124;48.144;17.098;2022-08-21T00:50:03;1.90;;;1.80;;
17997;SDS011;9124;48.144;17.098;2022-08-21T00:53:43;1.83;;;1.75;;
17997;SDS011;9124;48.144;17.098;2022-08-21T00:57:32;1.90;;;1.80;;
17997;SDS011;9124;48.144;17.098;2022-08-21T01:01:15;1.42;;;1.42;;
17997;SDS011;9124;48.144;17.098;2022-08-21T01:04:51;1.83;;;1.73;;
17997;SDS011;9124;48.144;17.098;2022-08-21T01:08:28;2.10;;;2.00;;
17997;SDS011;9124;48.144;17.098;2022-08-21T01:12:05;1.63;;;1.60;;
17997;SDS011;9124;48.144;17.098;2022-08-21T01:15:43;1.92;;;1.85;;
17997;SDS011;9124;48.144;17.098;2022-08-21T01:19:23;1.90;;;1.80;;
17997;SDS011;9124;48.144;17.098;2022-08-21T01:23:05;2.00;;;1.90;;
17997;SDS011;9124;48.144;17.098;2022-08-21T01:36:01;2.70;;;2.42;;
17997;SDS011;9124;48.144;17.098;2022-08-21T01:39:39;2.70;;;2.33;;
17997;SDS011;9124;48.144;17.098;2022-08-21T01:43:17;2.30;;;2.20;;
17997;SDS011;9124;48.144;17.098;2022-08-21T01:46:54;2.00;;;1.90;;
17997;SDS011;9124;48.144;17.098;2022-08-21T01:50:33;2.00;;;1.90;;
17997;SDS011;9124;48.144;17.098;2022-08-21T01:54:10;2.15;;;2.05;;
17997;SDS011;9124;48.144;17.098;2022-08-21T01:57:47;2.00;;;1.90;;
17997;SDS011;9124;48.144;17.098;2022-08-21T02:01:25;1.70;;;1.70;;
17997;SDS011;9124;48.144;17.098;2022-08-21T02:05:01;1.63;;;1.63;;
17997;SDS011;9124;48.144;17.098;2022-08-21T02:08:40;2.08;;;1.98;;
17997;SDS011;9124;48.144;17.098;2022-08-21T02:12:16;2.03;;;1.92;;
17997;SDS011;9124;48.144;17.098;2022-08-21T02:15:53;1.98;;;1.88;;
17997;SDS011;9124;48.144;17.098;2022-08-21T02:19:29;1.98;;;1.88;;
17997;SDS011;9124;48.144;17.098;2022-08-21T02:23:07;3.53;;;1.95;;
17997;SDS011;9124;48.144;17.098;2022-08-21T02:26:45;2.10;;;2.00;;
17997;SDS011;9124;48.144;17.098;2022-08-21T02:30:24;1.90;;;1.90;;
17997;SDS011;9124;48.144;17.098;2022-08-21T02:34:05;2.05;;;1.95;;
17997;SDS011;9124;48.144;17.098;2022-08-21T02:37:47;2.20;;;2.10;;
17997;SDS011;9124;48.144;17.098;2022-08-21T02:41:29;2.38;;;2.17;;
17997;SDS011;9124;48.144;17.098;2022-08-21T02:45:06;2.92;;;2.40;;
17997;SDS011;9124;48.144;17.098;2022-08-21T02:48:44;2.28;;;2.10;;
17997;SDS011;9124;48.144;17.098;2022-08-21T02:52:21;2.40;;;2.30;;
17997;SDS011;9124;48.144;17.098;2022-08-21T02:55:58;1.90;;;1.80;;
17997;SDS011;9124;48.144;17.098;2022-08-21T02:59:37;2.35;;;2.25;;
17997;SDS011;9124;48.144;17.098;2022-08-21T03:03:14;2.47;;;2.38;;
17997;SDS011;9124;48.144;17.098;2022-08-21T03:06:51;2.20;;;2.10;;
17997;SDS011;9124;48.144;17.098;2022-08-21T03:10:28;2.90;;;2.42;;
17997;SDS011;9124;48.144;17.098;2022-08-21T03:14:07;2.10;;;2.00;;
17997;SDS011;9124;48.144;17.098;2022-08-21T03:17:44;2.58;;;2.47;;
17997;SDS011;9124;48.144;17.098;2022-08-21T03:30:30;3.60;;;2.70;;
17997;SDS011;9124;48.144;17.098;2022-08-21T03:34:07;2.55;;;2.45;;
17997;SDS011;9124;48.144;17.098;2022-08-21T03:37:44;2.85;;;2.75;;
17997;SDS011;9124;48.144;17.098;2022-08-21T03:41:21;2.60;;;2.50;;
17997;SDS011;9124;48.144;17.098;2022-08-21T03:44:58;2.50;;;2.40;;
17997;SDS011;9124;48.144;17.098;2022-08-21T03:48:35;2.53;;;2.42;;
17997;SDS011;9124;48.144;17.098;2022-08-21T03:52:13;2.50;;;2.40;;
17997;SDS011;9124;48.144;17.098;2022-08-21T03:55:51;2.63;;;2.40;;
17997;SDS011;9124;48.144;17.098;2022-08-21T03:59:29;2.35;;;2.25;;
17997;SDS011;9124;48.144;17.098;2022-08-21T04:03:05;2.80;;;2.10;;
17997;SDS011;9124;48.144;17.098;2022-08-21T04:06:44;2.20;;;2.10;;
17997;SDS011;9124;48.144;17.098;2022-08-21T04:10:20;2.40;;;2.30;;
17997;SDS011;9124;48.144;17.098;2022-08-21T04:13:58;2.35;;;2.25;;
17997;SDS011;9124;48.144;17.098;2022-08-21T04:17:34;1.95;;;1.85;;
17997;SDS011;9124;48.144;17.098;2022-08-21T04:21:12;2.28;;;2.17;;
17997;SDS011;9124;48.144;17.098;2022-08-21T04:24:48;2.20;;;2.10;;
17997;SDS011;9124;48.144;17.098;2022-08-21T04:28:26;2.28;;;2.17;;
17997;SDS011;9124;48.144;17.098;2022-08-21T04:32:03;2.10;;;2.00;;
17997;SDS011;9124;48.144;17.098;2022-08-21T04:35:40;2.10;;;2.00;;
17997;SDS011;9124;48.144;17.098;2022-08-21T04:39:18;2.10;;;2.00;;
17997;SDS011;9124;48.144;17.098;2022-08-21T04:43:00;1.63;;;1.63;;
17997;SDS011;9124;48.144;17.098;2022-08-21T04:46:39;2.20;;;2.08;;
17997;SDS011;9124;48.144;17.098;2022-08-21T04:50:16;1.90;;;1.80;;
17997;SDS011;9124;48.144;17.098;2022-08-21T04:54:14;2.03;;;1.92;;
17997;SDS011;9124;48.144;17.098;2022-08-21T04:57:54;2.30;;;1.65;;
17997;SDS011;9124;48.144;17.098;2022-08-21T05:01:34;2.30;;;2.20;;
17997;SDS011;9124;48.144;17.098;2022-08-21T05:14:33;2.25;;;2.15;;
17997;SDS011;9124;48.144;17.098;2022-08-21T05:31:57;2.15;;;2.05;;
17997;SDS011;9124;48.144;17.098;2022-08-21T05:35:34;1.90;;;1.80;;
17997;SDS011;9124;48.144;17.098;2022-08-21T05:39:12;1.85;;;1.75;;
17997;SDS011;9124;48.144;17.098;2022-08-21T05:42:50;2.30;;;2.15;;
17997;SDS011;9124;48.144;17.098;2022-08-21T05:46:27;1.60;;;1.60;;
17997;SDS011;9124;48.144;17.098;2022-08-21T05:50:04;1.98;;;1.88;;
17997;SDS011;9124;48.144;17.098;2022-08-21T05:53:42;1.88;;;1.85;;
17997;SDS011;9124;48.144;17.098;2022-08-21T05:57:20;2.10;;;2.00;;
17997;SDS011;9124;48.144;17.098;2022-08-21T06:00:58;1.70;;;1.60;;
17997;SDS011;9124;48.144;17.098;2022-08-21T06:04:35;1.80;;;1.70;;
17997;SDS011;9124;48.144;17.098;2022-08-21T06:08:14;1.30;;;1.30;;
17997;SDS011;9124;48.144;17.098;2022-08-21T06:11:52;1.60;;;1.60;;
17997;SDS011;9124;48.144;17.098;2022-08-21T06:15:29;2.25;;;1.20;;
17997;SDS011;9124;48.144;17.098;2022-08-21T06:19:06;2.65;;;1.20;;
17997;SDS011;9124;48.144;17.098;2022-08-21T06:22:43;1.10;;;1.10;;
17997;SDS011;9124;48.144;17.098;2022-08-21T06:26:20;1.00;;;0.98;;
17997;SDS011;9124;48.144;17.098;2022-08-21T06:29:57;2.50;;;1.27;;
17997;SDS011;9124;48.144;17.098;2022-08-21T06:33:49;3.30;;;1.05;;
17997;SDS011;9124;48.144;17.098;2022-08-21T06:37:26;0.80;;;0.80;;
17997;SDS011;9124;48.144;17.098;2022-08-21T06:41:03;1.13;;;1.00;;
17997;SDS011;9124;48.144;17.098;2022-08-21T06:44:40;1.05;;;1.05;;
17997;SDS011;9124;48.144;17.098;2022-08-21T06:48:17;0.95;;;0.90;;
17997;SDS011;9124;48.144;17.098;2022-08-21T06:51:54;2.60;;;1.17;;
17997;SDS011;9124;48.144;17.098;2022-08-21T06:55:32;0.70;;;0.70;;
17997;SDS011;9124;48.144;17.098;2022-08-21T06:59:15;2.47;;;0.90;;
17997;SDS011;9124;48.144;17.098;2022-08-21T07:02:55;0.60;;;0.60;;
17997;SDS011;9124;48.144;17.098;2022-08-21T07:06:32;0.73;;;0.73;;
17997;SDS011;9124;48.144;17.098;2022-08-21T07:10:09;0.60;;;0.60;;
17997;SDS011;9124;48.144;17.098;2022-08-21T07:13:46;0.88;;;0.80;;
17997;SDS011;9124;48.144;17.098;2022-08-21T07:17:24;0.90;;;0.90;;
17997;SDS011;9124;48.144;17.098;2022-08-21T07:21:01;0.70;;;0.70;;
17997;SDS011;9124;48.144;17.098;2022-08-21T07:24:40;0.90;;;0.90;;
17997;SDS011;9124;48.144;17.098;2022-08-21T07:28:16;0.60;;;0.60;;
17997;SDS011;9124;48.144;17.098;2022-08-21T07:31:53;0.90;;;0.90;;
17997;SDS011;9124;48.144;17.098;2022-08-21T07:35:30;0.65;;;0.65;;
17997;SDS011;9124;48.144;17.098;2022-08-21T07:39:10;0.68;;;0.68;;
17997;SDS011;9124;48.144;17.098;2022-08-21T07:42:47;0.80;;;0.80;;
17997;SDS011;9124;48.144;17.098;2022-08-21T07:55:35;0.60;;;0.60;;
17997;SDS011;9124;48.144;17.098;2022-08-21T08:08:31;0.70;;;0.70;;
17997;SDS011;9124;48.144;17.098;2022-08-21T08:12:09;0.95;;;0.90;;
17997;SDS011;9124;48.144;17.098;2022-08-21T08:15:45;0.77;;;0.77;;
17997;SDS011;9124;48.144;17.098;2022-08-21T08:28:33;1.55;;;0.80;;
17997;SDS011;9124;48.144;17.098;2022-08-21T08:32:10;0.80;;;0.80;;
17997;SDS011;9124;48.144;17.098;2022-08-21T08:35:48;3.80;;;1.00;;
17997;SDS011;9124;48.144;17.098;2022-08-21T08:39:26;1.00;;;1.00;;
17997;SDS011;9124;48.144;17.098;2022-08-21T08:43:03;6.18;;;0.95;;
17997;SDS011;9124;48.144;17.098;2022-08-21T08:46:44;1.20;;;1.20;;
17997;SDS011;9124;48.144;17.098;2022-08-21T08:50:38;1.10;;;1.10;;
17997;SDS011;9124;48.144;17.098;2022-08-21T08:54:55;1.00;;;1.00;;
17997;SDS011;9124;48.144;17.098;2022-08-21T08:58:33;1.25;;;1.23;;
17997;SDS011;9124;48.144;17.098;2022-08-21T09:02:17;1.13;;;1.10;;
17997;SDS011;9124;48.144;17.098;2022-08-21T09:06:19;1.58;;;1.20;;
17997;SDS011;9124;48.144;17.098;2022-08-21T09:10:18;1.13;;;1.13;;
17997;SDS011;9124;48.144;17.098;2022-08-21T09:14:09;1.60;;;1.60;;
17997;SDS011;9124;48.144;17.098;2022-08-21T09:29:54;1.80;;;1.77;;
17997;SDS011;9124;48.144;17.098;2022-08-21T09:33:33;2.10;;;2.00;;
17997;SDS011;9124;48.144;17.098;2022-08-21T09:37:16;1.70;;;1.60;;
17997;SDS011;9124;48.144;17.098;2022-08-21T09:41:01;1.95;;;1.85;;
17997;SDS011;9124;48.144;17.098;2022-08-21T09:44:44;1.83;;;1.70;;
17997;SDS011;9124;48.144;17.098;2022-08-21T09:48:24;1.40;;;1.40;;
17997;SDS011;9124;48.144;17.098;2022-08-21T09:52:03;1.92;;;1.67;;
17997;SDS011;9124;48.144;17.098;2022-08-21T09:55:49;1.42;;;1.42;;
17997;SDS011;9124;48.144;17.098;2022-08-21T10:14:18;1.23;;;1.23;;
17997;SDS011;9124;48.144;17.098;2022-08-21T10:18:13;2.25;;;1.48;;
17997;SDS011;9124;48.144;17.098;2022-08-21T10:33:46;1.55;;;1.20;;
17997;SDS011;9124;48.144;17.098;2022-08-21T10:37:43;1.35;;;1.35;;
17997;SDS011;9124;48.144;17.098;2022-08-21T10:46:59;1.58;;;1.48;;
17997;SDS011;9124;48.144;17.098;2022-08-21T10:50:42;2.25;;;1.35;;
17997;SDS011;9124;48.144;17.098;2022-08-21T10:55:00;1.27;;;1.27;;
17997;SDS011;9124;48.144;17.098;2022-08-21T11:07:03;1.02;;;1.02;;
17997;SDS011;9124;48.144;17.098;2022-08-21T11:14:49;1.00;;;1.00;;
17997;SDS011;9124;48.144;17.098;2022-08-21T11:18:41;1.77;;;0.70;;
17997;SDS011;9124;48.144;17.098;2022-08-21T11:30:33;0.50;;;0.50;;
17997;SDS011;9124;48.144;17.098;2022-08-21T11:42:14;2.15;;;0.70;;
17997;SDS011;9124;48.144;17.098;2022-08-21T11:45:52;2.63;;;0.40;;
17997;SDS011;9124;48.144;17.098;2022-08-21T11:57:05;2.08;;;0.68;;
17997;SDS011;9124;48.144;17.098;2022-08-21T12:01:31;0.32;;;0.32;;
17997;SDS011;9124;48.144;17.098;2022-08-21T12:05:08;2.83;;;0.70;;
17997;SDS011;9124;48.144;17.098;2022-08-21T12:08:56;1.10;;;0.50;;
17997;SDS011;9124;48.144;17.098;2022-08-21T12:12:37;0.50;;;0.50;;
17997;SDS011;9124;48.144;17.098;2022-08-21T12:25:24;0.70;;;0.70;;
17997;SDS011;9124;48.144;17.098;2022-08-21T12:29:05;1.80;;;0.60;;
17997;SDS011;9124;48.144;17.098;2022-08-21T12:33:00;1.88;;;1.42;;
17997;SDS011;9124;48.144;17.098;2022-08-21T12:36:46;2.15;;;0.98;;
17997;SDS011;9124;48.144;17.098;2022-08-21T12:40:31;1.85;;;1.10;;
17997;SDS011;9124;48.144;17.098;2022-08-21T12:44:21;1.90;;;1.10;;
17997;SDS011;9124;48.144;17.098;2022-08-21T12:48:09;1.35;;;0.60;;
17997;SDS011;9124;48.144;17.098;2022-08-21T12:52:02;1.30;;;0.65;;
17997;SDS011;9124;48.144;17.098;2022-08-21T12:55:43;0.93;;;0.90;;
17997;SDS011;9124;48.144;17.098;2022-08-21T12:59:20;1.15;;;0.40;;
17997;SDS011;9124;48.144;17.098;2022-08-21T13:02:57;1.38;;;0.60;;
17997;SDS011;9124;48.144;17.098;2022-08-21T13:06:39;2.58;;;0.52;;
17997;SDS011;9124;48.144;17.098;2022-08-21T13:10:28;0.55;;;0.55;;
17997;SDS011;9124;48.144;17.098;2022-08-21T13:14:10;2.05;;;0.60;;
17997;SDS011;9124;48.144;17.098;2022-08-21T13:17:57;2.70;;;0.43;;
17997;SDS011;9124;48.144;17.098;2022-08-21T13:21:39;0.73;;;0.60;;
17997;SDS011;9124;48.144;17.098;2022-08-21T13:25:20;1.98;;;0.70;;
17997;SDS011;9124;48.144;17.098;2022-08-21T13:29:08;1.75;;;0.50;;
17997;SDS011;9124;48.144;17.098;2022-08-21T13:32:51;1.10;;;0.65;;
17997;SDS011;9124;48.144;17.098;2022-08-21T13:36:34;2.05;;;0.73;;
17997;SDS011;9124;48.144;17.098;2022-08-21T13:40:17;2.40;;;1.00;;
17997;SDS011;9124;48.144;17.098;2022-08-21T13:44:13;1.70;;;0.80;;
17997;SDS011;9124;48.144;17.098;2022-08-21T13:48:02;3.83;;;0.77;;
17997;SDS011;9124;48.144;17.098;2022-08-21T13:51:41;0.60;;;0.60;;
17997;SDS011;9124;48.144;17.098;2022-08-21T13:55:19;0.82;;;0.68;;
17997;SDS011;9124;48.144;17.098;2022-08-21T13:58:57;2.30;;;0.60;;
17997;SDS011;9124;48.144;17.098;2022-08-21T14:02:37;2.15;;;1.00;;
17997;SDS011;9124;48.144;17.098;2022-08-21T14:06:22;1.98;;;0.73;;
17997;SDS011;9124;48.144;17.098;2022-08-21T14:10:03;1.00;;;1.00;;
17997;SDS011;9124;48.144;17.098;2022-08-21T14:23:25;1.02;;;1.02;;
17997;SDS011;9124;48.144;17.098;2022-08-21T14:27:04;1.83;;;1.40;;
17997;SDS011;9124;48.144;17.098;2022-08-21T14:30:43;0.90;;;0.90;;
17997;SDS011;9124;48.144;17.098;2022-08-21T14:34:20;3.38;;;1.30;;
17997;SDS011;9124;48.144;17.098;2022-08-21T14:37:57;1.30;;;1.20;;
17997;SDS011;9124;48.144;17.098;2022-08-21T14:41:36;2.72;;;1.10;;
17997;SDS011;9124;48.144;17.098;2022-08-21T14:45:17;1.38;;;1.23;;
17997;SDS011;9124;48.144;17.098;2022-08-21T14:48:59;1.10;;;1.10;;
17997;SDS011;9124;48.144;17.098;2022-08-21T14:52:36;2.80;;;1.10;;
17997;SDS011;9124;48.144;17.098;2022-08-21T14:56:13;1.20;;;1.10;;
17997;SDS011;9124;48.144;17.098;2022-08-21T14:59:51;2.42;;;1.45;;
17997;SDS011;9124;48.144;17.098;2022-08-21T15:03:28;2.63;;;1.33;;
17997;SDS011;9124;48.144;17.098;2022-08-21T15:07:05;1.13;;;1.10;;
17997;SDS011;9124;48.144;17.098;2022-08-21T15:10:42;1.30;;;1.20;;
17997;SDS011;9124;48.144;17.098;2022-08-21T15:14:26;1.38;;;1.27;;
17997;SDS011;9124;48.144;17.098;2022-08-21T15:18:05;1.45;;;1.35;;
17997;SDS011;9124;48.144;17.098;2022-08-21T15:21:42;1.83;;;1.70;;
17997;SDS011;9124;48.144;17.098;2022-08-21T15:25:19;1.92;;;1.70;;
17997;SDS011;9124;48.144;17.098;2022-08-21T15:28:56;2.15;;;1.90;;
17997;SDS011;9124;48.144;17.098;2022-08-21T15:32:35;2.17;;;1.77;;
17997;SDS011;9124;48.144;17.098;2022-08-21T15:36:11;4.25;;;1.70;;
17997;SDS011;9124;48.144;17.098;2022-08-21T15:39:49;1.80;;;1.70;;
17997;SDS011;9124;48.144;17.098;2022-08-21T15:43:30;2.38;;;2.13;;
17997;SDS011;9124;48.144;17.098;2022-08-21T15:47:14;2.33;;;2.13;;
17997;SDS011;9124;48.144;17.098;2022-08-21T15:50:54;1.65;;;1.38;;
17997;SDS011;9124;48.144;17.098;2022-08-21T15:54:32;3.78;;;2.25;;
17997;SDS011;9124;48.144;17.098;2022-08-21T15:58:11;3.95;;;2.88;;
17997;SDS011;9124;48.144;17.098;2022-08-21T16:10:55;2.40;;;1.85;;
17997;SDS011;9124;48.144;17.098;2022-08-21T16:14:32;2.75;;;2.47;;
17997;SDS011;9124;48.144;17.098;2022-08-21T16:18:12;2.40;;;2.30;;
17997;SDS011;9124;48.144;17.098;2022-08-21T16:21:49;4.03;;;2.47;;
17997;SDS011;9124;48.144;17.098;2022-08-21T16:25:26;2.50;;;1.83;;
17997;SDS011;9124;48.144;17.098;2022-08-21T16:29:03;2.15;;;1.95;;
17997;SDS011;9124;48.144;17.098;2022-08-21T16:32:42;4.35;;;2.10;;
17997;SDS011;9124;48.144;17.098;2022-08-21T16:36:19;2.60;;;1.85;;
17997;SDS011;9124;48.144;17.098;2022-08-21T16:39:57;2.95;;;2.10;;
17997;SDS011;9124;48.144;17.098;2022-08-21T16:43:34;2.75;;;1.70;;
17997;SDS011;9124;48.144;17.098;2022-08-21T16:47:11;3.05;;;1.58;;
17997;SDS011;9124;48.144;17.098;2022-08-21T16:50:48;1.80;;;1.70;;
17997;SDS011;9124;48.144;17.098;2022-08-21T16:54:25;1.98;;;1.80;;
17997;SDS011;9124;48.144;17.098;2022-08-21T16:58:03;1.92;;;1.83;;
17997;SDS011;9124;48.144;17.098;2022-08-21T17:01:51;1.67;;;1.58;;
17997;SDS011;9124;48.144;17.098;2022-08-21T17:05:29;1.98;;;1.75;;
17997;SDS011;9124;48.144;17.098;2022-08-21T17:09:07;2.40;;;2.20;;
17997;SDS011;9124;48.144;17.098;2022-08-21T17:12:43;1.67;;;1.58;;
17997;SDS011;9124;48.144;17.098;2022-08-21T17:16:31;1.80;;;1.45;;
17997;SDS011;9124;48.144;17.098;2022-08-21T17:20:09;2.90;;;1.80;;
17997;SDS011;9124;48.144;17.098;2022-08-21T17:23:46;3.33;;;1.77;;
17997;SDS011;9124;48.144;17.098;2022-08-21T17:27:23;1.77;;;1.67;;
17997;SDS011;9124;48.144;17.098;2022-08-21T17:31:03;4.35;;;2.17;;
17997;SDS011;9124;48.144;17.098;2022-08-21T17:34:42;2.22;;;2.05;;
17997;SDS011;9124;48.144;17.098;2022-08-21T17:38:20;2.38;;;2.17;;
17997;SDS011;9124;48.144;17.098;2022-08-21T17:41:57;2.17;;;2.03;;
17997;SDS011;9124;48.144;17.098;2022-08-21T17:45:37;2.80;;;1.90;;
17997;SDS011;9124;48.144;17.098;2022-08-21T17:49:14;2.05;;;1.73;;
17997;SDS011;9124;48.144;17.098;2022-08-21T17:52:51;2.17;;;1.67;;
17997;SDS011;9124;48.144;17.098;2022-08-21T17:56:30;2.38;;;2.15;;
17997;SDS011;9124;48.144;17.098;2022-08-21T18:00:11;1.77;;;1.67;;
17997;SDS011;9124;48.144;17.098;2022-08-21T18:03:49;1.73;;;1.55;;
17997;SDS011;9124;48.144;17.098;2022-08-21T18:07:27;2.47;;;1.80;;
17997;SDS011;9124;48.144;17.098;2022-08-21T18:11:03;1.85;;;1.63;;
17997;SDS011;9124;48.144;17.098;2022-08-21T18:14:41;2.20;;;2.00;;
17997;SDS011;9124;48.144;17.098;2022-08-21T18:18:17;1.50;;;1.40;;
17997;SDS011;9124;48.144;17.098;2022-08-21T18:27:23;1.73;;;1.63;;
17997;SDS011;9124;48.144;17.098;2022-08-21T18:31:00;2.67;;;2.00;;
17997;SDS011;9124;48.144;17.098;2022-08-21T18:34:38;2.25;;;1.88;;
17997;SDS011;9124;48.144;17.098;2022-08-21T18:38:17;1.77;;;1.67;;
17997;SDS011;9124;48.144;17.098;2022-08-21T18:41:56;1.80;;;1.70;;
17997;SDS011;9124;48.144;17.098;2022-08-21T18:45:35;1.95;;;1.80;;
17997;SDS011;9124;48.144;17.098;2022-08-21T18:49:12;2.08;;;1.98;;
17997;SDS011;9124;48.144;17.098;2022-08-21T18:52:49;2.63;;;1.77;;
17997;SDS011;9124;48.144;17.098;2022-08-21T18:56:25;2.20;;;2.10;;
17997;SDS011;9124;48.144;17.098;2022-08-21T19:00:07;2.65;;;2.45;;
17997;SDS011;9124;48.144;17.098;2022-08-21T19:03:46;2.30;;;2.20;;
17997;SDS011;9124;48.144;17.098;2022-08-21T19:07:23;2.80;;;2.60;;
17997;SDS011;9124;48.144;17.098;2022-08-21T19:10:59;3.42;;;2.80;;
17997;SDS011;9124;48.144;17.098;2022-08-21T19:14:38;2.70;;;2.60;;
17997;SDS011;9124;48.144;17.098;2022-08-21T19:18:14;2.92;;;2.72;;
17997;SDS011;9124;48.144;17.098;2022-08-21T19:21:52;2.45;;;2.33;;
17997;SDS011;9124;48.144;17.098;2022-08-21T19:25:29;3.10;;;2.90;;
17997;SDS011;9124;48.144;17.098;2022-08-21T19:29:07;2.80;;;2.58;;
17997;SDS011;9124;48.144;17.098;2022-08-21T19:32:45;3.30;;;3.10;;
17997;SDS011;9124;48.144;17.098;2022-08-21T19:36:23;3.15;;;2.92;;
17997;SDS011;9124;48.144;17.098;2022-08-21T19:39:59;3.25;;;3.05;;
17997;SDS011;9124;48.144;17.098;2022-08-21T19:43:40;3.80;;;2.80;;
17997;SDS011;9124;48.144;17.098;2022-08-21T19:47:28;3.10;;;2.90;;
17997;SDS011;9124;48.144;17.098;2022-08-21T19:51:06;2.92;;;2.67;;
17997;SDS011;9124;48.144;17.098;2022-08-21T19:54:42;3.45;;;3.15;;
17997;SDS011;9124;48.144;17.098;2022-08-21T19:58:53;6.05;;;3.13;;
17997;SDS011;9124;48.144;17.098;2022-08-21T20:02:23;3.70;;;3.42;;
17997;SDS011;9124;48.144;17.098;2022-08-21T20:06:00;3.22;;;3.03;;
17997;SDS011;9124;48.144;17.098;2022-08-21T20:09:36;3.30;;;3.08;;
17997;SDS011;9124;48.144;17.098;2022-08-21T20:13:13;3.65;;;3.05;;
17997;SDS011;9124;48.144;17.098;2022-08-21T20:16:51;3.20;;;2.90;;
17997;SDS011;9124;48.144;17.098;2022-08-21T20:20:28;3.15;;;2.67;;
17997;SDS011;9124;48.144;17.098;2022-08-21T20:24:05;4.68;;;2.80;;
17997;SDS011;9124;48.144;17.098;2022-08-21T20:37:09;2.90;;;2.70;;
17997;SDS011;9124;48.144;17.098;2022-08-21T20:40:47;3.67;;;3.17;;
17997;SDS011;9124;48.144;17.098;2022-08-21T20:44:27;3.95;;;2.97;;
17997;SDS011;9124;48.144;17.098;2022-08-21T20:48:27;3.30;;;2.22;;
17997;SDS011;9124;48.144;17.098;2022-08-21T20:52:08;5.25;;;2.75;;
17997;SDS011;9124;48.144;17.098;2022-08-21T20:55:47;2.75;;;2.55;;
17997;SDS011;9124;48.144;17.098;2022-08-21T20:59:30;2.75;;;2.60;;
17997;SDS011;9124;48.144;17.098;2022-08-21T21:03:23;3.42;;;3.20;;
17997;SDS011;9124;48.144;17.098;2022-08-21T21:07:09;3.08;;;2.90;;
17997;SDS011;9124;48.144;17.098;2022-08-21T21:10:55;4.10;;;3.38;;
17997;SDS011;9124;48.144;17.098;2022-08-21T21:14:49;3.35;;;3.10;;
17997;SDS011;9124;48.144;17.098;2022-08-21T21:18:34;3.28;;;3.08;;
17997;SDS011;9124;48.144;17.098;2022-08-21T21:22:16;3.30;;;3.10;;
17997;SDS011;9124;48.144;17.098;2022-08-21T21:26:04;3.50;;;3.22;;
17997;SDS011;9124;48.144;17.098;2022-08-21T21:29:54;3.15;;;3.03;;
17997;SDS011;9124;48.144;17.098;2022-08-21T21:33:47;2.78;;;2.67;;
17997;SDS011;9124;48.144;17.098;2022-08-21T21:37:26;5.32;;;3.45;;
17997;SDS011;9124;48.144;17.098;2022-08-21T21:41:22;2.92;;;2.75;;
17997;SDS011;9124;48.144;17.098;2022-08-21T21:52:51;4.22;;;3.83;;
17997;SDS011;9124;48.144;17.098;2022-08-21T22:00:34;2.45;;;2.28;;
17997;SDS011;9124;48.144;17.098;2022-08-21T22:04:17;3.38;;;3.08;;
17997;SDS011;9124;48.144;17.098;2022-08-21T22:16:08;2.97;;;2.80;;
17997;SDS011;9124;48.144;17.098;2022-08-21T22:19:46;2.92;;;2.70;;
17997;SDS011;9124;48.144;17.098;2022-08-21T22:23:28;3.15;;;2.75;;
17997;SDS011;9124;48.144;17.098;2022-08-21T22:36:28;3.47;;;3.28;;
17997;SDS011;9124;48.144;17.098;2022-08-21T22:40:08;2.75;;;2.55;;
17997;SDS011;9124;48.144;17.098;2022-08-21T22:43:49;3.22;;;3.03;;
17997;SDS011;9124;48.144;17.098;2022-08-21T22:47:36;2.75;;;2.60;;
17997;SDS011;9124;48.144;17.098;2022-08-21T22:51:27;4.55;;;2.28;;
17997;SDS011;9124;48.144;17.098;2022-08-21T22:56:07;2.72;;;2.53;;
17997;SDS011;9124;48.144;17.098;2022-08-21T22:59:51;3.42;;;2.97;;
17997;SDS011;9124;48.144;17.098;2022-08-21T23:03:45;3.63;;;2.45;;
17997;SDS011;9124;48.144;17.098;2022-08-21T23:11:17;2.47;;;2.30;;
17997;SDS011;9124;48.144;17.098;2022-08-21T23:15:12;3.00;;;2.80;;
17997;SDS011;9124;48.144;17.098;2022-08-21T23:26:32;3.30;;;3.00;;
17997;SDS011;9124;48.144;17.098;2022-08-21T23:42:49;3.28;;;2.60;;
17997;SDS011;9124;48.144;17.098;2022-08-21T23:54:08;3.10;;;2.95;;
